TimeCST,TemperatureF,Dew PointF,Humidity,Sea Level PressureIn,VisibilityMPH,Wind Direction,Wind SpeedMPH,Gust SpeedMPH,PrecipitationIn,Events,Conditions,WindDirDegrees,DateUTC
12:15 AM,37.9,37.9,100,29.80,4.0,North,12.7,-,0.04,Rain,Rain,360,2013-02-25 06:15:00
12:35 AM,37.8,37.8,100,29.78,3.0,North,17.3,20.7,0.11,Rain,Rain,350,2013-02-25 06:35:00
12:55 AM,37.6,37.6,100,29.77,4.0,North,15.0,-,0.16,Rain,Rain,360,2013-02-25 06:55:00
1:15 AM,37.4,37.4,100,29.76,5.0,North,19.6,-,0.02,Rain,Light Rain,350,2013-02-25 07:15:00
1:35 AM,37.4,37.4,100,29.81,4.0,NW,10.4,-,0.03,Rain-Thunderstorm,Light Thunderstorms and Rain,310,2013-02-25 07:35:00
1:55 AM,37.8,37.8,100,29.80,3.0,North,8.1,-,0.12,Rain-Thunderstorm,Rain,350,2013-02-25 07:55:00
2:15 AM,37.9,37.9,100,29.82,3.0,NNW,5.8,-,0.07,Rain,Heavy Rain,330,2013-02-25 08:15:00
2:35 AM,37.8,37.8,100,29.73,2.5,NNE,19.6,-,0.20,Rain,Rain,30,2013-02-25 08:35:00
2:55 AM,37.4,37.4,100,29.70,4.0,NNE,20.7,-,0.25,Rain-Thunderstorm,Rain,30,2013-02-25 08:55:00
3:15 AM,37.0,37.0,100,29.72,3.0,North,17.3,-,0.01,Rain,Light Rain,360,2013-02-25 09:15:00
3:35 AM,37.2,37.2,100,29.72,3.0,North,13.8,18.4,0.03,Rain-Thunderstorm,Rain,10,2013-02-25 09:35:00
3:55 AM,37.8,37.8,100,29.70,3.0,North,13.8,-,0.07,Rain-Thunderstorm,Rain,10,2013-02-25 09:55:00
4:15 AM,37.4,37.4,100,29.71,2.5,North,15.0,-,0.07,Rain-Thunderstorm,Thunderstorms and Rain,350,2013-02-25 10:15:00
4:35 AM,37.9,37.9,100,29.72,2.0,North,13.8,25.3,0.17,Rain-Thunderstorm,Rain,350,2013-02-25 10:35:00
4:55 AM,38.3,38.3,100,29.71,2.5,North,18.4,21.9,0.28,Rain-Thunderstorm,Heavy Thunderstorms and Rain,360,2013-02-25 10:55:00
5:15 AM,37.4,37.4,100,29.70,4.0,North,19.6,-,0.08,Rain-Thunderstorm,Light Thunderstorms and Rain,10,2013-02-25 11:15:00
5:35 AM,37.4,37.4,100,29.67,3.0,NNE,21.9,28.8,0.19,Rain,Light Rain,20,2013-02-25 11:35:00
5:55 AM,37.4,37.4,100,29.68,4.0,NNE,25.3,32.2,0.27,Rain,Light Rain,30,2013-02-25 11:55:00
6:15 AM,37.4,37.4,100,29.72,4.0,NNE,18.4,27.6,0.07,Rain-Thunderstorm,Thunderstorms and Rain,30,2013-02-25 12:15:00
6:35 AM,37.4,37.4,100,29.73,4.0,NE,18.4,23.0,0.17,Rain,Light Rain,40,2013-02-25 12:35:00
6:55 AM,37.0,37.0,100,29.67,1.5,NNE,23.0,34.5,0.32,Rain,Rain,30,2013-02-25 12:55:00
7:15 AM,37.0,37.0,100,29.68,4.0,NNE,23.0,34.5,0.03,Rain,Rain,30,2013-02-25 13:15:00
7:35 AM,36.7,36.7,100,29.67,4.0,NNE,24.2,31.1,0.05,Rain,Light Rain,30,2013-02-25 13:35:00
7:55 AM,36.5,36.5,100,29.68,4.0,NNE,21.9,27.6,0.07,Rain,Rain,20,2013-02-25 13:55:00
8:15 AM,35.8,35.8,100,29.68,5.0,NNE,23.0,28.8,0.02,Rain,Light Rain,20,2013-02-25 14:15:00
8:35 AM,34.9,34.9,100,29.68,4.0,NNE,26.5,33.4,0.04,,Overcast,20,2013-02-25 14:35:00
8:55 AM,34.9,34.9,100,29.68,3.0,NNE,24.2,32.2,0.04,,Overcast,20,2013-02-25 14:55:00
9:15 AM,34.9,34.9,100,29.67,2.5,North,21.9,31.1,0.01,,Overcast,10,2013-02-25 15:15:00
9:35 AM,34.2,34.2,100,29.67,1.5,North,23.0,27.6,0.05,,Overcast,10,2013-02-25 15:35:00
9:55 AM,34.0,34.0,100,29.69,2.0,NNE,19.6,-,0.08,Snow,Light Snow,20,2013-02-25 15:55:00
10:15 AM,33.8,33.8,100,29.68,1.8,NNE,19.6,24.2,0.03,Snow,Light Snow,20,2013-02-25 16:15:00
10:35 AM,33.8,33.8,100,29.66,1.8,NNE,19.6,-,0.06,,Overcast,20,2013-02-25 16:35:00
10:55 AM,33.8,33.8,100,29.65,1.8,NNE,24.2,28.8,0.09,Snow,Light Snow,20,2013-02-25 16:55:00
11:15 AM,33.8,33.8,100,29.65,1.2,North,20.7,26.5,0.01,Snow,Light Snow,10,2013-02-25 17:15:00
11:35 AM,33.8,33.8,100,29.67,2.0,NNE,18.4,26.5,0.02,Snow,Light Snow,20,2013-02-25 17:35:00
11:55 AM,33.4,33.4,100,29.66,1.2,North,23.0,26.5,0.03,Snow,Light Snow,10,2013-02-25 17:55:00
12:15 PM,33.4,33.4,100,29.65,0.5,North,20.7,-,0.02,Snow,Snow,10,2013-02-25 18:15:00
12:35 PM,-9999,-9999,N/A,-9999,-9999.0,North,-9999.0,-,N/A,,Unknown,0,2013-02-25 18:35:00
12:55 PM,-9999,-9999,N/A,-9999,-9999.0,North,-9999.0,-,N/A,,Unknown,0,2013-02-25 18:55:00
1:15 PM,-9999,-9999,N/A,-9999,-9999.0,North,-9999.0,-,N/A,,Unknown,0,2013-02-25 19:15:00
1:35 PM,-9999,-9999,N/A,-9999,-9999.0,North,-9999.0,-,N/A,,Unknown,0,2013-02-25 19:35:00
1:55 PM,32.9,32.9,100,29.58,-9999.0,North,21.9,27.6,0.05,,Unknown,360,2013-02-25 19:55:00
2:15 PM,32.9,32.9,100,29.57,0.2,North,21.9,-,0.01,Snow,Snow,360,2013-02-25 20:15:00
2:35 PM,-9999,-9999,N/A,-9999,-9999.0,North,-9999.0,-,N/A,,Unknown,0,2013-02-25 20:35:00